createdAt,value
2019-02-06T00:00:30.374Z,20.48
2019-02-06T00:01:30.367Z,20.48
2019-02-06T00:02:30.350Z,20.48
2019-02-06T00:03:30.346Z,20.48
2019-02-06T00:04:30.331Z,20.48
2019-02-06T00:05:30.346Z,20.48
2019-02-06T00:06:30.307Z,20.44
2019-02-06T00:07:30.308Z,20.47
2019-02-06T00:08:30.283Z,20.47
2019-02-06T00:09:30.272Z,20.47
2019-02-06T00:10:30.265Z,20.44
2019-02-06T00:11:30.269Z,20.43
2019-02-06T00:12:30.277Z,20.43
2019-02-06T00:13:30.233Z,20.43
2019-02-06T00:14:30.217Z,20.43
2019-02-06T00:15:30.223Z,20.43
2019-02-06T00:16:30.216Z,20.41
2019-02-06T00:17:30.184Z,20.41
2019-02-06T00:18:30.201Z,20.41
2019-02-06T00:19:30.165Z,20.40
2019-02-06T00:20:30.163Z,20.40
2019-02-06T00:21:30.146Z,20.39
2019-02-06T00:22:30.152Z,20.40
2019-02-06T00:23:30.119Z,20.39
2019-02-06T00:24:30.124Z,20.39
2019-02-06T00:25:30.105Z,20.37
2019-02-06T00:26:30.091Z,20.37
2019-02-06T00:27:30.074Z,20.36
2019-02-06T00:28:30.112Z,20.34
2019-02-06T00:29:30.054Z,20.34
2019-02-06T00:30:30.052Z,20.34
2019-02-06T00:31:30.029Z,20.32
2019-02-06T00:32:30.024Z,20.32
2019-02-06T00:33:30.035Z,20.32
2019-02-06T00:34:30.224Z,20.29
2019-02-06T00:35:29.993Z,20.31
2019-02-06T00:36:29.982Z,20.31
2019-02-06T00:37:29.972Z,20.31
2019-02-06T00:38:29.961Z,20.28
2019-02-06T00:39:29.950Z,20.28
2019-02-06T00:40:29.974Z,20.26
2019-02-06T00:41:29.942Z,20.26
2019-02-06T00:42:29.924Z,20.25
2019-02-06T00:43:29.901Z,20.25
2019-02-06T00:44:29.892Z,20.25
2019-02-06T00:45:29.890Z,20.22
2019-02-06T00:46:30.087Z,20.22
2019-02-06T00:47:29.849Z,20.22
2019-02-06T00:48:29.837Z,20.21
2019-02-06T00:49:29.833Z,20.21
2019-02-06T00:50:29.823Z,20.19
2019-02-06T00:51:29.811Z,20.19
2019-02-06T00:52:29.814Z,20.19
2019-02-06T00:53:29.802Z,20.18
2019-02-06T00:54:29.770Z,20.18
2019-02-06T00:55:29.766Z,20.18
2019-02-06T00:56:29.755Z,20.16
2019-02-06T00:57:29.744Z,20.14
2019-02-06T00:58:29.747Z,20.16
2019-02-06T00:59:29.720Z,20.13
2019-02-06T01:00:29.703Z,20.14
2019-02-06T01:01:29.692Z,20.13
2019-02-06T01:02:29.688Z,20.13
2019-02-06T01:03:29.719Z,20.13
2019-02-06T01:04:29.659Z,20.11
2019-02-06T01:05:38.089Z,20.11
2019-02-06T01:06:30.655Z,20.14
2019-02-06T01:07:29.630Z,20.13
2019-02-06T01:08:29.628Z,20.11
2019-02-06T01:09:29.631Z,20.13
2019-02-06T01:10:29.600Z,20.13
2019-02-06T01:11:29.582Z,20.13
2019-02-06T01:12:29.570Z,20.13
2019-02-06T01:13:29.569Z,20.13
2019-02-06T01:14:29.550Z,20.14
2019-02-06T01:15:29.564Z,20.16
2019-02-06T01:16:29.534Z,20.14
2019-02-06T01:17:29.518Z,20.14
2019-02-06T01:18:29.503Z,20.16
2019-02-06T01:19:29.495Z,20.16
2019-02-06T01:20:29.487Z,20.16
2019-02-06T01:21:29.491Z,20.16
2019-02-06T01:22:29.479Z,20.18
2019-02-06T01:23:29.456Z,20.18
2019-02-06T01:24:29.441Z,20.18
2019-02-06T01:25:29.433Z,20.19
2019-02-06T01:26:29.416Z,20.19
2019-02-06T01:27:29.406Z,20.19
2019-02-06T01:28:29.422Z,20.19
2019-02-06T01:29:29.388Z,20.21
2019-02-06T01:30:29.378Z,20.21
2019-02-06T01:31:29.362Z,20.21
2019-02-06T01:32:29.354Z,20.21
2019-02-06T01:33:29.344Z,20.21
2019-02-06T01:34:29.346Z,20.21
2019-02-06T01:35:29.313Z,20.19
2019-02-06T01:36:29.311Z,20.22
2019-02-06T01:37:29.290Z,20.19
2019-02-06T01:38:29.282Z,20.21
2019-02-06T01:39:29.287Z,20.21
2019-02-06T01:40:29.278Z,20.21
2019-02-06T01:41:29.246Z,20.21
2019-02-06T01:42:29.234Z,20.19
2019-02-06T01:43:29.232Z,20.21
2019-02-06T01:44:29.218Z,20.21
2019-02-06T01:45:29.209Z,20.21
2019-02-06T01:46:29.216Z,20.21
2019-02-06T01:47:29.186Z,20.22
2019-02-06T01:48:29.175Z,20.22
2019-02-06T01:49:29.189Z,20.21
2019-02-06T01:50:29.172Z,20.21
2019-02-06T01:51:29.142Z,20.21
2019-02-06T01:52:29.126Z,20.21
2019-02-06T01:53:29.117Z,20.21
2019-02-06T01:54:29.104Z,20.21
2019-02-06T01:55:29.115Z,20.21
2019-02-06T01:56:29.086Z,20.19
2019-02-06T01:57:29.070Z,20.19
2019-02-06T01:58:29.062Z,20.19
2019-02-06T01:59:29.045Z,20.19
2019-02-06T02:00:29.057Z,20.21
2019-02-06T02:01:29.033Z,20.19
2019-02-06T02:02:29.038Z,20.21
2019-02-06T02:03:29.007Z,20.21
2019-02-06T02:04:28.994Z,20.19
2019-02-06T02:05:28.978Z,20.21
2019-02-06T02:06:29.107Z,20.19
2019-02-06T02:07:28.977Z,20.21
2019-02-06T02:08:28.953Z,20.19
2019-02-06T02:09:28.942Z,20.19
2019-02-06T02:10:28.925Z,20.19
2019-02-06T02:11:28.918Z,20.21
2019-02-06T02:12:28.928Z,20.21
2019-02-06T02:13:28.896Z,20.21
2019-02-06T02:14:28.882Z,20.21
2019-02-06T02:15:28.870Z,20.21
2019-02-06T02:16:28.862Z,20.22
2019-02-06T02:17:29.061Z,20.21
2019-02-06T02:18:28.841Z,20.22
2019-02-06T02:19:28.827Z,20.22
2019-02-06T02:20:28.815Z,20.22
2019-02-06T02:21:28.802Z,20.22
2019-02-06T02:22:28.793Z,20.24
2019-02-06T02:23:28.803Z,20.22
2019-02-06T02:24:28.767Z,20.22
2019-02-06T02:25:28.775Z,20.24
2019-02-06T02:26:28.748Z,20.22
2019-02-06T02:27:28.735Z,20.24
2019-02-06T02:28:28.956Z,20.24
2019-02-06T02:29:28.711Z,20.22
2019-02-06T02:30:28.701Z,20.22
2019-02-06T02:31:28.690Z,20.25
2019-02-06T02:32:28.681Z,20.24
2019-02-06T02:33:28.670Z,20.25
2019-02-06T02:34:28.884Z,20.25
2019-02-06T02:35:28.662Z,20.24
2019-02-06T02:36:28.640Z,20.25
2019-02-06T02:37:28.621Z,20.25
2019-02-06T02:38:28.612Z,20.25
2019-02-06T02:39:28.607Z,20.25
2019-02-06T02:40:28.616Z,20.25
2019-02-06T02:41:28.581Z,20.25
2019-02-06T02:42:28.565Z,20.25
2019-02-06T02:43:28.554Z,20.25
2019-02-06T02:44:28.551Z,20.25
2019-02-06T02:45:28.548Z,20.25
2019-02-06T02:46:28.645Z,20.25
2019-02-06T02:47:28.519Z,20.25
2019-02-06T02:48:28.525Z,20.26
2019-02-06T02:49:28.527Z,20.26
2019-02-06T02:50:28.492Z,20.25
2019-02-06T02:51:28.464Z,20.25
2019-02-06T02:52:28.456Z,20.24
2019-02-06T02:53:28.451Z,20.25
2019-02-06T02:54:28.435Z,20.25
2019-02-06T02:55:28.451Z,20.25
2019-02-06T02:56:28.409Z,20.26
2019-02-06T02:57:28.401Z,20.24
2019-02-06T02:58:28.599Z,20.24
2019-02-06T02:59:28.381Z,20.24
2019-02-06T03:00:28.370Z,20.24
2019-02-06T03:01:28.370Z,20.22
2019-02-06T03:02:28.351Z,20.24
2019-02-06T03:03:28.334Z,20.24
2019-02-06T03:04:28.593Z,20.24
2019-02-06T03:05:28.314Z,20.22
2019-02-06T03:06:28.742Z,20.24
2019-02-06T03:07:28.296Z,20.22
2019-02-06T03:08:28.280Z,20.24
2019-02-06T03:09:28.273Z,20.22
2019-02-06T03:10:28.281Z,20.22
2019-02-06T03:11:28.268Z,20.22
2019-02-06T03:12:28.234Z,20.22
2019-02-06T03:13:28.227Z,20.22
2019-02-06T03:14:28.219Z,20.22
2019-02-06T03:15:28.205Z,20.22
2019-02-06T03:16:28.216Z,20.22
2019-02-06T03:17:28.471Z,20.21
2019-02-06T03:18:28.168Z,20.21
2019-02-06T03:19:28.156Z,20.21
2019-02-06T03:20:28.150Z,20.22
2019-02-06T03:21:28.152Z,20.21
2019-02-06T03:22:28.125Z,20.21
2019-02-06T03:23:28.332Z,20.21
2019-02-06T03:24:28.107Z,20.21
2019-02-06T03:25:28.094Z,20.21
2019-02-06T03:26:28.081Z,20.21
2019-02-06T03:27:28.091Z,20.19
2019-02-06T03:28:28.063Z,20.21
2019-02-06T03:29:28.065Z,20.21
2019-02-06T03:30:28.044Z,20.19
2019-02-06T03:31:28.077Z,20.21
2019-02-06T03:32:28.017Z,20.19
2019-02-06T03:33:28.001Z,20.19
2019-02-06T03:34:27.994Z,20.19
2019-02-06T03:35:28.005Z,20.21
2019-02-06T03:36:39.528Z,20.19
2019-02-06T03:37:28.959Z,20.18
2019-02-06T03:38:27.954Z,20.19
2019-02-06T03:39:27.940Z,20.21
2019-02-06T03:40:27.929Z,20.19
2019-02-06T03:41:27.931Z,20.19
2019-02-06T03:42:27.902Z,20.21
2019-02-06T03:43:27.888Z,20.19
2019-02-06T03:44:27.896Z,20.19
2019-02-06T03:45:27.867Z,20.21
2019-02-06T03:46:27.887Z,20.19
2019-02-06T03:47:27.852Z,20.21
2019-02-06T03:48:27.834Z,20.19
2019-02-06T03:49:27.838Z,20.19
2019-02-06T03:50:27.817Z,20.19
2019-02-06T03:51:27.803Z,20.19
2019-02-06T03:52:27.812Z,20.19
2019-02-06T03:53:27.780Z,20.19
2019-02-06T03:54:27.766Z,20.19
2019-02-06T03:55:27.786Z,20.18
2019-02-06T03:56:27.753Z,20.19
2019-02-06T03:57:27.749Z,20.21
2019-02-06T03:58:27.859Z,20.21
2019-02-06T03:59:27.847Z,20.18
2019-02-06T04:00:27.707Z,20.19
2019-02-06T04:01:27.709Z,20.21
2019-02-06T04:02:27.677Z,20.19
2019-02-06T04:03:27.678Z,20.18
2019-02-06T04:04:27.679Z,20.21
2019-02-06T04:05:27.666Z,20.18
2019-02-06T04:06:27.644Z,20.21
2019-02-06T04:07:27.635Z,20.19
2019-02-06T04:08:27.618Z,20.19
2019-02-06T04:09:27.601Z,20.19
2019-02-06T04:10:27.615Z,20.19
2019-02-06T04:11:27.585Z,20.18
2019-02-06T04:12:27.567Z,20.18
2019-02-06T04:13:27.562Z,20.19
2019-02-06T04:14:27.572Z,20.19
2019-02-06T04:15:27.558Z,20.18
2019-02-06T04:16:27.528Z,20.18
2019-02-06T04:17:27.515Z,20.18
2019-02-06T04:18:27.512Z,20.19
2019-02-06T04:19:27.542Z,20.18
2019-02-06T04:20:27.486Z,20.18
2019-02-06T04:21:27.495Z,20.18
2019-02-06T04:22:27.458Z,20.16
2019-02-06T04:23:27.453Z,20.18
2019-02-06T04:24:27.433Z,20.18
2019-02-06T04:25:27.433Z,20.18
2019-02-06T04:26:27.414Z,20.18
2019-02-06T04:27:27.439Z,20.18
2019-02-06T04:28:27.393Z,20.18
2019-02-06T04:29:27.384Z,20.18
2019-02-06T04:30:27.375Z,20.16
2019-02-06T04:31:27.358Z,20.18
2019-02-06T04:32:27.347Z,20.18
2019-02-06T04:33:27.362Z,20.18
2019-02-06T04:34:27.323Z,20.18
2019-02-06T04:35:27.313Z,20.16
2019-02-06T04:36:27.323Z,20.18
2019-02-06T04:37:27.293Z,20.16
2019-02-06T04:38:27.301Z,20.18
2019-02-06T04:39:27.266Z,20.16
2019-02-06T04:40:27.256Z,20.18
2019-02-06T04:41:27.246Z,20.18
2019-02-06T04:42:27.231Z,20.18
2019-02-06T04:43:27.441Z,20.18
2019-02-06T04:44:27.215Z,20.18
2019-02-06T04:45:27.204Z,20.18
2019-02-06T04:46:27.188Z,20.18
2019-02-06T04:47:27.178Z,20.18
2019-02-06T04:48:27.173Z,20.16
2019-02-06T04:49:27.186Z,20.16
2019-02-06T04:50:27.147Z,20.18
2019-02-06T04:51:27.141Z,20.16
2019-02-06T04:52:27.120Z,20.16
2019-02-06T04:53:27.120Z,20.16
2019-02-06T04:54:27.102Z,20.18
2019-02-06T04:55:27.112Z,20.18
2019-02-06T04:56:27.086Z,20.16
2019-02-06T04:57:27.072Z,20.19
2019-02-06T04:58:27.057Z,20.18
2019-02-06T04:59:27.048Z,20.18
2019-02-06T05:00:27.030Z,20.19
2019-02-06T05:01:27.044Z,20.19
2019-02-06T05:02:27.009Z,20.18
2019-02-06T05:03:26.999Z,20.19
2019-02-06T05:04:26.988Z,20.19
2019-02-06T05:05:26.972Z,20.19
2019-02-06T05:06:26.994Z,20.21
2019-02-06T05:07:26.958Z,20.19
2019-02-06T05:08:27.228Z,20.19
2019-02-06T05:09:26.932Z,20.21
2019-02-06T05:10:26.931Z,20.19
2019-02-06T05:11:26.909Z,20.21
2019-02-06T05:12:26.895Z,20.21
2019-02-06T05:13:26.890Z,20.21
2019-02-06T05:14:26.907Z,20.22
2019-02-06T05:15:26.869Z,20.21
2019-02-06T05:16:26.863Z,20.22
2019-02-06T05:17:26.841Z,20.24
2019-02-06T05:18:26.847Z,20.24
2019-02-06T05:19:26.819Z,20.24
2019-02-06T05:20:26.828Z,20.24
2019-02-06T05:21:26.799Z,20.24
2019-02-06T05:22:26.787Z,20.24
2019-02-06T05:23:26.897Z,20.25
2019-02-06T05:24:26.774Z,20.25
2019-02-06T05:25:26.779Z,20.25
2019-02-06T05:26:26.745Z,20.25
2019-02-06T05:27:26.735Z,20.25
2019-02-06T05:28:26.722Z,20.26
2019-02-06T05:29:26.713Z,20.25
2019-02-06T05:30:26.700Z,20.26
2019-02-06T05:31:26.978Z,20.26
2019-02-06T05:32:26.674Z,20.26
2019-02-06T05:33:26.661Z,20.26
2019-02-06T05:34:26.655Z,20.28
2019-02-06T05:35:26.643Z,20.26
2019-02-06T05:36:26.631Z,20.28
2019-02-06T05:37:32.268Z,20.26
2019-02-06T05:38:27.605Z,20.28
2019-02-06T05:39:26.606Z,20.28
2019-02-06T05:40:26.585Z,20.28
2019-02-06T05:41:26.581Z,20.29
2019-02-06T05:42:26.585Z,20.28
2019-02-06T05:43:26.562Z,20.29
2019-02-06T05:44:26.539Z,20.29
2019-02-06T05:45:26.534Z,20.29
2019-02-06T05:46:26.521Z,20.28
2019-02-06T05:47:26.556Z,20.31
2019-02-06T05:48:26.518Z,20.29
2019-02-06T05:49:26.487Z,20.29
2019-02-06T05:50:26.475Z,20.28
2019-02-06T05:51:26.463Z,20.29
2019-02-06T05:52:26.456Z,20.29
2019-02-06T05:53:26.444Z,20.28
2019-02-06T05:54:26.660Z,20.29
2019-02-06T05:55:26.427Z,20.29
2019-02-06T05:56:26.412Z,20.29
2019-02-06T05:57:26.397Z,20.29
2019-02-06T05:58:26.401Z,20.29
2019-02-06T05:59:26.374Z,20.29
2019-02-06T06:00:26.387Z,20.29
2019-02-06T06:01:26.366Z,20.29
2019-02-06T06:02:26.345Z,20.29
2019-02-06T06:03:26.331Z,20.29
2019-02-06T06:04:26.316Z,20.29
2019-02-06T06:05:26.588Z,20.28
2019-02-06T06:06:26.302Z,20.31
2019-02-06T06:07:26.289Z,20.29
2019-02-06T06:08:26.281Z,20.29
2019-02-06T06:09:26.268Z,20.29
2019-02-06T06:10:26.266Z,20.29
2019-02-06T06:11:26.259Z,20.29
2019-02-06T06:12:26.225Z,20.29
2019-02-06T06:13:26.223Z,20.29
2019-02-06T06:14:26.212Z,20.29
2019-02-06T06:15:26.195Z,20.28
2019-02-06T06:16:26.207Z,20.28
2019-02-06T06:17:26.170Z,20.28
2019-02-06T06:18:26.189Z,20.28
2019-02-06T06:19:26.150Z,20.29
2019-02-06T06:20:26.135Z,20.28
2019-02-06T06:21:26.132Z,20.28
2019-02-06T06:22:26.119Z,20.29
2019-02-06T06:23:26.210Z,20.31
2019-02-06T06:24:26.133Z,20.28
2019-02-06T06:25:26.101Z,20.29
2019-02-06T06:26:26.067Z,20.29
2019-02-06T06:27:26.063Z,20.29
2019-02-06T06:28:26.070Z,20.29
2019-02-06T06:29:26.040Z,20.29
2019-02-06T06:30:26.053Z,20.31
2019-02-06T06:31:26.019Z,20.29
2019-02-06T06:32:26.122Z,20.31
2019-02-06T06:33:25.991Z,20.31
2019-02-06T06:34:25.986Z,20.31
2019-02-06T06:35:25.972Z,20.32
2019-02-06T06:36:25.957Z,20.31
2019-02-06T06:37:25.948Z,20.32
2019-02-06T06:38:25.971Z,20.31
2019-02-06T06:39:25.930Z,20.32
2019-02-06T06:40:25.930Z,20.31
2019-02-06T06:41:25.905Z,20.34
2019-02-06T06:42:25.916Z,20.34
2019-02-06T06:43:25.887Z,20.34
2019-02-06T06:44:25.898Z,20.32
2019-02-06T06:45:25.859Z,20.32
2019-02-06T06:46:25.847Z,20.34
2019-02-06T06:47:25.840Z,20.34
2019-02-06T06:48:25.832Z,20.32
2019-02-06T06:49:25.820Z,20.36
2019-02-06T06:50:25.831Z,20.37
2019-02-06T06:51:25.794Z,20.34
2019-02-06T06:52:25.782Z,20.36
2019-02-06T06:53:25.768Z,20.36
2019-02-06T06:54:25.784Z,20.36
2019-02-06T06:55:25.754Z,20.36
2019-02-06T06:56:25.762Z,20.34
2019-02-06T06:57:25.751Z,20.37
2019-02-06T06:58:25.712Z,20.37
2019-02-06T06:59:25.710Z,20.36
2019-02-06T07:00:25.703Z,20.37
2019-02-06T07:01:25.680Z,20.37
2019-02-06T07:02:25.674Z,20.37
2019-02-06T07:03:25.678Z,20.37
2019-02-06T07:04:25.686Z,20.37
2019-02-06T07:05:25.662Z,20.37
2019-02-06T07:06:25.732Z,20.39
2019-02-06T07:07:25.611Z,20.39
2019-02-06T07:08:25.603Z,20.37
2019-02-06T07:09:25.617Z,20.39
2019-02-06T07:10:25.584Z,20.39
2019-02-06T07:11:25.575Z,20.37
2019-02-06T07:12:25.563Z,20.37
2019-02-06T07:13:25.545Z,20.37
2019-02-06T07:14:25.541Z,20.39
2019-02-06T07:15:25.737Z,20.39
2019-02-06T07:16:25.520Z,20.39
2019-02-06T07:17:25.506Z,20.39
2019-02-06T07:18:25.496Z,20.39
2019-02-06T07:19:25.480Z,20.39
2019-02-06T07:20:25.476Z,20.39
2019-02-06T07:21:25.499Z,20.39
2019-02-06T07:22:25.451Z,20.37
2019-02-06T07:23:25.435Z,20.36
2019-02-06T07:24:25.426Z,20.37
2019-02-06T07:25:25.413Z,20.39
2019-02-06T07:26:25.401Z,20.37
2019-02-06T07:27:25.412Z,20.37
2019-02-06T07:28:25.385Z,20.37
2019-02-06T07:29:25.367Z,20.37
2019-02-06T07:30:25.441Z,20.37
2019-02-06T07:31:25.352Z,20.37
2019-02-06T07:32:25.363Z,20.36
2019-02-06T07:33:25.340Z,20.36
2019-02-06T07:34:25.314Z,20.37
2019-02-06T07:35:25.304Z,20.37
2019-02-06T07:36:25.292Z,20.37
2019-02-06T07:37:25.297Z,20.37
2019-02-06T07:38:25.272Z,20.37
2019-02-06T07:39:25.265Z,20.36
2019-02-06T07:40:25.249Z,20.36
2019-02-06T07:41:25.233Z,20.37
2019-02-06T07:42:25.245Z,20.36
2019-02-06T07:43:25.238Z,20.36
2019-02-06T07:44:25.302Z,20.37
2019-02-06T07:45:25.198Z,20.37
2019-02-06T07:46:25.181Z,20.37
2019-02-06T07:47:25.173Z,20.39
2019-02-06T07:48:25.158Z,20.37
2019-02-06T07:49:25.376Z,20.37
2019-02-06T07:50:25.135Z,20.36
2019-02-06T07:51:25.123Z,20.37
2019-02-06T07:52:25.114Z,20.37
2019-02-06T07:53:25.104Z,20.37
2019-02-06T07:54:25.094Z,20.39
2019-02-06T07:55:25.100Z,20.39
2019-02-06T07:56:25.064Z,20.39
2019-02-06T07:57:25.058Z,20.37
2019-02-06T07:58:25.049Z,20.39
2019-02-06T07:59:25.055Z,20.39
2019-02-06T08:00:25.024Z,20.39
2019-02-06T08:01:25.038Z,20.40
2019-02-06T08:02:24.999Z,20.39
2019-02-06T08:03:24.990Z,20.39
2019-02-06T08:04:24.983Z,20.40
2019-02-06T08:05:24.970Z,20.40
2019-02-06T08:06:24.955Z,20.39
2019-02-06T08:07:25.109Z,20.40
2019-02-06T08:08:35.621Z,20.39
2019-02-06T08:09:25.925Z,20.39
2019-02-06T08:10:24.914Z,20.40
2019-02-06T08:11:24.906Z,20.40
2019-02-06T08:12:24.884Z,20.40
2019-02-06T08:13:24.895Z,20.40
2019-02-06T08:14:24.909Z,20.40
2019-02-06T08:15:24.943Z,20.40
2019-02-06T08:16:24.843Z,20.40
2019-02-06T08:17:24.831Z,20.40
2019-02-06T08:18:24.825Z,20.40
2019-02-06T08:19:24.809Z,20.39
2019-02-06T08:20:24.834Z,20.39
2019-02-06T08:21:24.787Z,20.40
2019-02-06T08:22:24.786Z,20.41
2019-02-06T08:23:24.768Z,20.40
2019-02-06T08:24:24.754Z,20.40
2019-02-06T08:25:24.758Z,20.39
2019-02-06T08:26:24.751Z,20.39
2019-02-06T08:27:26.375Z,20.40
2019-02-06T08:28:24.718Z,20.40
2019-02-06T08:29:24.703Z,20.40
2019-02-06T08:30:24.710Z,20.41
2019-02-06T08:31:24.678Z,20.40
2019-02-06T08:32:24.682Z,20.40
2019-02-06T08:33:24.654Z,20.40
2019-02-06T08:34:24.647Z,20.41
2019-02-06T08:35:24.648Z,20.40
2019-02-06T08:36:24.624Z,20.40
2019-02-06T08:37:24.613Z,20.41
2019-02-06T08:38:24.629Z,20.40
2019-02-06T08:39:24.586Z,20.40
2019-02-06T08:40:24.575Z,20.40
2019-02-06T08:41:24.568Z,20.40
2019-02-06T08:42:24.552Z,20.40
2019-02-06T08:43:24.565Z,20.41
2019-02-06T08:44:24.607Z,20.39
2019-02-06T08:45:24.520Z,20.40
2019-02-06T08:46:24.517Z,20.40
2019-02-06T08:47:24.498Z,20.40
2019-02-06T08:48:24.489Z,20.41
2019-02-06T08:49:24.511Z,20.39
2019-02-06T08:50:24.468Z,20.41
2019-02-06T08:51:24.451Z,20.40
2019-02-06T08:52:24.441Z,20.40
2019-02-06T08:53:24.449Z,20.40
2019-02-06T08:54:24.419Z,20.40
2019-02-06T08:55:24.637Z,20.40
2019-02-06T08:56:24.396Z,20.40
2019-02-06T08:57:24.383Z,20.41
2019-02-06T08:58:24.375Z,20.41
2019-02-06T08:59:24.366Z,20.41
2019-02-06T09:00:24.349Z,20.40
2019-02-06T09:01:24.364Z,20.41
2019-02-06T09:02:24.330Z,20.41
2019-02-06T09:03:24.321Z,20.41
2019-02-06T09:04:24.322Z,20.40
2019-02-06T09:05:24.302Z,20.43
2019-02-06T09:06:24.314Z,20.41
2019-02-06T09:07:24.281Z,20.41
2019-02-06T09:08:24.267Z,20.43
2019-02-06T09:09:24.255Z,20.43
2019-02-06T09:10:24.237Z,20.40
2019-02-06T09:11:24.230Z,20.41
2019-02-06T09:12:24.238Z,20.43
2019-02-06T09:13:24.206Z,20.43
2019-02-06T09:14:24.199Z,20.41
2019-02-06T09:15:27.146Z,20.41
2019-02-06T09:16:24.198Z,20.43
2019-02-06T09:17:24.178Z,20.43
2019-02-06T09:18:24.177Z,20.41
2019-02-06T09:19:24.140Z,20.41
2019-02-06T09:20:24.137Z,20.43
2019-02-06T09:21:24.122Z,20.43
2019-02-06T09:22:24.108Z,20.43
2019-02-06T09:23:24.098Z,20.44
2019-02-06T09:24:24.103Z,20.43
2019-02-06T09:25:24.077Z,20.43
2019-02-06T09:26:24.058Z,20.41
2019-02-06T09:27:24.070Z,20.41
2019-02-06T09:28:24.040Z,20.43
2019-02-06T09:29:24.025Z,20.43
2019-02-06T09:30:24.016Z,20.43
2019-02-06T09:31:24.009Z,20.41
2019-02-06T09:32:23.997Z,20.41
2019-02-06T09:33:24.003Z,20.43
2019-02-06T09:34:23.972Z,20.43
2019-02-06T09:35:23.958Z,20.41
2019-02-06T09:36:23.957Z,20.43
2019-02-06T09:37:23.943Z,20.43
2019-02-06T09:38:23.947Z,20.43
2019-02-06T09:39:23.934Z,20.43
2019-02-06T09:40:23.903Z,20.43
2019-02-06T09:41:23.890Z,20.43
2019-02-06T09:42:23.879Z,20.43
2019-02-06T09:43:23.898Z,20.41
2019-02-06T09:44:23.859Z,20.43
2019-02-06T09:45:23.852Z,20.43
2019-02-06T09:46:23.841Z,20.43
2019-02-06T09:47:23.826Z,20.43
2019-02-06T09:48:23.815Z,20.43
2019-02-06T09:49:23.862Z,20.43
2019-02-06T09:50:23.791Z,20.41
2019-02-06T09:51:23.786Z,20.43
2019-02-06T09:52:26.737Z,20.43
2019-02-06T09:53:24.783Z,20.43
2019-02-06T09:54:23.750Z,20.47
2019-02-06T09:55:23.737Z,20.43
2019-02-06T09:56:23.725Z,20.43
2019-02-06T09:57:23.718Z,20.43
2019-02-06T09:58:23.939Z,20.44
2019-02-06T09:59:23.693Z,20.43
2019-02-06T10:00:23.682Z,20.43
2019-02-06T10:01:23.668Z,20.44
2019-02-06T10:02:23.682Z,20.44
2019-02-06T10:03:23.647Z,20.44
2019-02-06T10:04:23.656Z,20.41
2019-02-06T10:05:23.650Z,20.43
2019-02-06T10:06:23.640Z,20.41
2019-02-06T10:07:23.598Z,20.43
2019-02-06T10:08:23.596Z,20.43
2019-02-06T10:09:23.579Z,20.44
2019-02-06T10:10:23.569Z,20.47
2019-02-06T10:11:23.575Z,20.44
2019-02-06T10:12:23.545Z,20.41
2019-02-06T10:13:23.532Z,20.43
2019-02-06T10:14:23.530Z,20.43
2019-02-06T10:15:23.510Z,20.43
2019-02-06T10:16:23.681Z,20.43
2019-02-06T10:17:23.489Z,20.43
2019-02-06T10:18:23.482Z,20.43
2019-02-06T10:19:23.466Z,20.44
2019-02-06T10:20:23.459Z,20.43
2019-02-06T10:21:23.447Z,20.44
2019-02-06T10:22:23.459Z,20.47
2019-02-06T10:23:23.431Z,20.50
2019-02-06T10:24:23.417Z,20.50
2019-02-06T10:25:23.426Z,20.52
2019-02-06T10:26:23.390Z,20.56
2019-02-06T10:27:24.097Z,20.59
2019-02-06T10:28:24.255Z,20.62
2019-02-06T10:29:23.363Z,20.66
2019-02-06T10:30:23.346Z,20.69
2019-02-06T10:31:23.340Z,20.74
2019-02-06T10:32:23.344Z,20.78
2019-02-06T10:33:23.314Z,20.82
2019-02-06T10:34:23.322Z,20.84
2019-02-06T10:35:23.296Z,20.87
2019-02-06T10:36:23.280Z,20.90
2019-02-06T10:37:23.276Z,20.93
2019-02-06T10:38:23.269Z,20.93
2019-02-06T10:39:33.939Z,20.96
2019-02-06T10:40:24.271Z,20.97
2019-02-06T10:41:23.228Z,20.99
2019-02-06T10:42:23.213Z,20.99
2019-02-06T10:43:31.775Z,21.00
2019-02-06T10:44:24.190Z,21.02
2019-02-06T10:45:23.181Z,21.02
2019-02-06T10:46:23.396Z,21.02
2019-02-06T10:47:23.162Z,21.00
2019-02-06T10:48:23.166Z,21.03
2019-02-06T10:49:23.148Z,21.03
2019-02-06T10:50:23.128Z,21.05
2019-02-06T10:51:23.113Z,21.02
2019-02-06T10:52:23.131Z,21.03
2019-02-06T10:53:23.092Z,21.05
2019-02-06T10:54:23.079Z,21.03
2019-02-06T10:55:23.066Z,21.03
2019-02-06T10:56:23.061Z,21.03
2019-02-06T10:57:23.054Z,21.02
2019-02-06T10:58:23.086Z,21.00
2019-02-06T10:59:23.028Z,21.00
2019-02-06T11:00:23.022Z,21.00
2019-02-06T11:01:23.005Z,20.99
2019-02-06T11:02:22.997Z,20.99
2019-02-06T11:03:22.979Z,20.99
2019-02-06T11:04:22.993Z,20.97
2019-02-06T11:05:22.958Z,20.97
2019-02-06T11:06:22.981Z,20.97
2019-02-06T11:07:22.942Z,20.96
2019-02-06T11:08:22.933Z,20.95
2019-02-06T11:09:22.919Z,20.95
2019-02-06T11:10:22.904Z,20.95
2019-02-06T11:11:22.911Z,20.93
2019-02-06T11:12:24.655Z,20.93
2019-02-06T11:13:22.872Z,20.92
2019-02-06T11:14:22.855Z,20.92
2019-02-06T11:15:22.849Z,20.93
2019-02-06T11:16:22.839Z,20.90
2019-02-06T11:17:22.826Z,20.90
2019-02-06T11:18:22.840Z,20.88
2019-02-06T11:19:22.803Z,20.87
2019-02-06T11:20:22.791Z,20.87
2019-02-06T11:21:22.782Z,20.85
2019-02-06T11:22:22.771Z,20.87
2019-02-06T11:23:22.763Z,20.84
2019-02-06T11:24:22.783Z,20.84
2019-02-06T11:25:22.738Z,20.84
2019-02-06T11:26:22.727Z,20.82
2019-02-06T11:27:22.722Z,20.82
2019-02-06T11:28:22.706Z,20.80
2019-02-06T11:29:22.712Z,20.81
2019-02-06T11:30:22.685Z,20.80
2019-02-06T11:31:22.674Z,20.81
2019-02-06T11:32:22.663Z,20.80
2019-02-06T11:33:22.651Z,20.78
2019-02-06T11:34:22.658Z,20.77
2019-02-06T11:35:22.656Z,20.77
2019-02-06T11:36:24.446Z,20.77
2019-02-06T11:37:22.605Z,20.75
2019-02-06T11:38:22.599Z,20.75
2019-02-06T11:39:22.590Z,20.74
2019-02-06T11:40:22.568Z,20.72
2019-02-06T11:41:22.781Z,20.72
2019-02-06T11:42:22.554Z,20.72
2019-02-06T11:43:22.541Z,20.72
2019-02-06T11:44:22.525Z,20.72
2019-02-06T11:45:22.522Z,20.72
2019-02-06T11:46:22.509Z,20.72
2019-02-06T11:47:22.717Z,20.72
2019-02-06T11:48:22.497Z,20.72
2019-02-06T11:49:22.481Z,20.70
2019-02-06T11:50:22.457Z,20.70
2019-02-06T11:51:24.539Z,20.72
2019-02-06T11:52:22.434Z,20.69
2019-02-06T11:53:22.648Z,20.70
2019-02-06T11:54:22.419Z,20.69
2019-02-06T11:55:22.408Z,20.69
2019-02-06T11:56:22.395Z,20.69
2019-02-06T11:57:24.209Z,20.69
2019-02-06T11:58:22.370Z,20.67
2019-02-06T11:59:22.382Z,20.66
2019-02-06T12:00:22.346Z,20.67
2019-02-06T12:01:22.343Z,20.67
2019-02-06T12:02:22.322Z,20.69
2019-02-06T12:03:22.474Z,20.69
2019-02-06T12:04:22.329Z,20.69
2019-02-06T12:05:22.289Z,20.69
2019-02-06T12:06:22.277Z,20.70
2019-02-06T12:07:22.274Z,20.70
2019-02-06T12:08:22.261Z,20.74
2019-02-06T12:09:22.251Z,20.74
2019-02-06T12:10:22.284Z,20.77
2019-02-06T12:11:22.224Z,20.78
2019-02-06T12:12:22.217Z,20.80
2019-02-06T12:13:22.208Z,20.81
2019-02-06T12:14:22.190Z,20.82
2019-02-06T12:15:22.182Z,20.84
2019-02-06T12:16:22.191Z,20.85
2019-02-06T12:17:22.159Z,20.88
2019-02-06T12:18:22.144Z,20.90
2019-02-06T12:19:22.158Z,20.92
2019-02-06T12:20:22.134Z,20.92
2019-02-06T12:21:22.134Z,20.95
2019-02-06T12:22:22.100Z,20.96
2019-02-06T12:23:31.848Z,20.99
2019-02-06T12:24:23.079Z,20.99
2019-02-06T12:25:22.072Z,21.00
2019-02-06T12:26:22.059Z,21.00
2019-02-06T12:27:22.274Z,21.02
2019-02-06T12:28:22.042Z,21.03
2019-02-06T12:29:22.028Z,21.05
2019-02-06T12:30:22.264Z,21.05
2019-02-06T12:31:22.005Z,21.07
2019-02-06T12:32:22.044Z,21.09
2019-02-06T12:33:22.200Z,21.12
2019-02-06T12:34:21.974Z,21.11
2019-02-06T12:35:21.956Z,21.12
2019-02-06T12:36:21.953Z,21.12
2019-02-06T12:37:21.935Z,21.14
2019-02-06T12:38:21.970Z,21.14
2019-02-06T12:39:22.772Z,21.14
2019-02-06T12:40:22.193Z,21.15
2019-02-06T12:41:21.905Z,21.17
2019-02-06T12:42:21.881Z,21.17
2019-02-06T12:43:21.895Z,21.18
2019-02-06T12:44:21.858Z,21.18
2019-02-06T12:45:21.847Z,21.17
2019-02-06T12:46:21.842Z,21.20
2019-02-06T12:47:21.848Z,21.20
2019-02-06T12:48:21.843Z,21.20
2019-02-06T12:49:21.824Z,21.21
2019-02-06T12:50:21.792Z,21.20
2019-02-06T12:51:21.785Z,21.20
2019-02-06T12:52:21.789Z,21.20